首页
METAR-TAF:

METAR-TAF

机场 :

奧西耶克, 克罗地亚

纬度: 45-27N, 经度: 018-48E, 海拔: 88米

当前天气观测

该预报发布于41分钟前的10:00 UTC
风速9节,风向东转东南
温度 11°C
湿度 94%
气压 1012 hPa
能見度: 8000
散云层高于700英尺
阴天层高于1300英尺

METAR: LDOS 151000Z 12009KT 8000 SCT007 OVC013 11/10 Q1012

时间: 11:41 (10:41 UTC)

预报

该预报发布于1小时和7分钟前的09:34 UTC
预报有效从15日的 09点(UTC)到 16日的 06点(UTC)
风速12节,风向东转东南
能見度: 7000
阴天层高于1600英尺
几率 30% :
短暂存在
从 15日的 09点(UTC)到 15日的 11点(UTC)
能見度: 4000
阴天层高于1000英尺
轻雾
几率 30% :
短暂存在
从 15日的 21点(UTC)到 16日的 04点(UTC)
风速15节,风向东南,有时为25节阵风

TAF: LDOS 150934Z 1509/1606 12012KT 7000 OVC016 TX16/1513Z TN10/1600Z PROB30 TEMPO 1509/1511 4000 BR OVC010 PROB30 TEMPO 1521/1604 14015G25KT

超过4000个机场的气象观测和天气预报(METAR&TAF报告)。

可查询的气象台以黄色和红色小点在地图上表示。

将鼠标移到小点上方,可查看气象台名称。

然后点击查看天气观测和预报。

如需切换地图:点击带黑十字的绿色按钮放大地图;点击带横线的绿色按钮缩小地图;或者点击绿色箭头查看邻近地区的地图。


METAR-TAF: